OIZJ  Jask Airport

Add Bookmark

Jask, Iran

Status
Operational
Latitude Longitude
25° 39' 12" N 57° 47' 57" E
25.653601 57.799301
Local (DST + 5) UTC (GMT + 4)
Oct 23, 2014 08:38 Oct 23, 2014 05:08
Sunrise-Sunset Local UTC
Begin Civil Twilight 05:17 01:47
Sunrise 05:40 02:10
Sunset 05:05 13:35
End Civil Twilight 05:28 13:58

Current Weather

METAR Observed MVFR
OIZJ 230400Z 09014KT 6000 SKC 28/26 Q1013 Thu, Oct 23, 2014 @ 04:00 UTC
(1 Hour, 8 Minutes ago)
Marginal Visual Flight Rules
Wind Visibility Clouds Conditions
090° at 14 knots (26 kph) 6000 meters
  • Clear skies
  • No significant weather
Temperatures Readings Precipitation
Current Temp 28°C (82°F)
Dewpoint 26°C (79°F)
Heat Index 33°C (91°F)
Humidity 89%
Altimeter 29.91"Hg
Sea Level Pressure 1013mb
Field Elevation 13.12'
None Recorded

Additional weather within a 185.2km radius of OIZJ

Map ICAO Location
OMFJ 159.8km W (248°)
OIKO 178.5km N (337°)

24 Hour Weather History

Loading
-

24 Hour Weather Graphs

Loading
-

CheckWX.com is intended as a tool to help pilots better visualize weather data. It is not intended as a substitute for an official weather briefing obtained from a Flight Service Station. CheckWX.com does not meet the FAA requirements for an official pre-flight weather briefing. Therefore, it's important that pilots still call and obtain an official FSS pre-flight weather briefing.